createdAt,value
2023-04-09T00:01:33.712Z,61.20
2023-04-09T00:04:20.629Z,65.13
2023-04-09T00:06:53.671Z,49.97
2023-04-09T00:09:40.594Z,48.83
2023-04-09T00:12:13.694Z,51.88
2023-04-09T00:15:00.622Z,53.20
2023-04-09T00:17:33.714Z,60.35
2023-04-09T00:20:20.612Z,54.75
2023-04-09T00:22:54.150Z,54.13
2023-04-09T00:25:40.608Z,51.28
2023-04-09T00:28:13.702Z,50.70
2023-04-09T00:31:00.600Z,51.10
2023-04-09T00:33:33.775Z,52.85
2023-04-09T00:36:20.592Z,74.20
2023-04-09T00:38:54.896Z,75.70
2023-04-09T00:41:41.608Z,71.85
2023-04-09T00:44:14.696Z,85.47
2023-04-09T00:47:01.658Z,85.00
2023-04-09T00:49:42.615Z,74.53
2023-04-09T00:52:30.594Z,68.75
2023-04-09T00:55:14.625Z,54.80
2023-04-09T00:58:01.593Z,71.70
2023-04-09T01:00:41.659Z,49.83
2023-04-09T01:03:28.716Z,52.33
2023-04-09T01:06:37.022Z,61.53
2023-04-09T01:10:15.612Z,48.33
2023-04-09T01:13:17.608Z,59.25
2023-04-09T01:16:14.643Z,44.85
2023-04-09T01:19:23.633Z,64.63
2023-04-09T01:21:58.741Z,53.78
2023-04-09T01:25:08.635Z,56.60
2023-04-09T01:28:00.650Z,85.07
2023-04-09T01:30:56.651Z,60.08
2023-04-09T01:33:44.627Z,64.13
2023-04-09T01:36:17.706Z,61.22
2023-04-09T01:39:07.655Z,49.88
2023-04-09T01:41:42.738Z,50.03
2023-04-09T01:44:30.615Z,60.25
2023-04-09T01:47:05.789Z,44.67
2023-04-09T01:49:59.620Z,67.57
2023-04-09T01:52:53.644Z,61.58
2023-04-09T01:55:40.638Z,55.13
2023-04-09T01:58:13.741Z,66.68
2023-04-09T02:01:07.676Z,62.45
2023-04-09T02:03:54.775Z,46.17
2023-04-09T02:06:54.637Z,57.65
2023-04-09T02:09:52.627Z,53.58
2023-04-09T02:12:50.864Z,48.22
2023-04-09T02:15:38.644Z,63.53
2023-04-09T02:18:11.773Z,39.35
2023-04-09T02:20:58.653Z,41.22
2023-04-09T02:23:33.568Z,41.03
2023-04-09T02:26:20.640Z,40.33
2023-04-09T02:29:00.688Z,37.85
2023-04-09T02:31:47.651Z,46.78
2023-04-09T02:34:20.746Z,40.83
2023-04-09T02:37:07.661Z,47.88
2023-04-09T02:39:40.815Z,42.72
2023-04-09T02:42:28.634Z,51.22
2023-04-09T02:45:01.741Z,44.67
2023-04-09T02:47:48.672Z,50.95
2023-04-09T02:50:21.779Z,46.10
2023-04-09T02:53:08.653Z,40.65
2023-04-09T02:55:41.739Z,41.88
2023-04-09T02:58:28.647Z,39.88
2023-04-09T03:01:01.787Z,40.47
2023-04-09T03:03:49.749Z,39.90
2023-04-09T03:06:22.759Z,43.72
2023-04-09T03:09:02.656Z,37.90
2023-04-09T03:11:42.751Z,39.78
2023-04-09T03:14:15.946Z,45.78
2023-04-09T03:17:02.660Z,39.22
2023-04-09T03:19:37.754Z,40.47
2023-04-09T03:22:24.671Z,42.30
2023-04-09T03:24:57.847Z,40.55
2023-04-09T03:27:44.658Z,43.97
2023-04-09T03:30:18.769Z,48.13
2023-04-09T03:33:05.721Z,44.63
2023-04-09T03:35:45.706Z,43.40
2023-04-09T03:38:32.690Z,42.75
2023-04-09T03:41:05.783Z,40.88
2023-04-09T03:43:52.690Z,42.92
2023-04-09T03:46:26.003Z,43.20
2023-04-09T03:49:19.725Z,44.53
2023-04-09T03:52:13.705Z,41.28
2023-04-09T03:55:00.654Z,44.45
2023-04-09T03:57:33.829Z,40.90
2023-04-09T04:00:20.677Z,43.00
2023-04-09T04:03:01.030Z,37.95
2023-04-09T04:05:54.673Z,39.08
2023-04-09T04:08:41.691Z,41.13
2023-04-09T04:11:14.786Z,44.20
2023-04-09T04:14:02.693Z,41.78
2023-04-09T04:16:42.856Z,42.50
2023-04-09T04:19:36.682Z,44.15
2023-04-09T04:22:26.123Z,37.47
2023-04-09T04:24:59.796Z,42.65
2023-04-09T04:27:49.702Z,44.42
2023-04-09T04:30:22.789Z,41.75
2023-04-09T04:33:09.692Z,40.38
2023-04-09T04:35:42.858Z,35.55
2023-04-09T04:38:29.685Z,39.30
2023-04-09T04:41:02.898Z,40.72
2023-04-09T04:43:49.686Z,38.50
2023-04-09T04:46:22.883Z,39.50
2023-04-09T04:49:16.707Z,38.75
2023-04-09T04:52:10.693Z,42.97
2023-04-09T04:54:57.734Z,35.40
2023-04-09T04:57:37.733Z,33.10
2023-04-09T05:00:31.717Z,38.85
2023-04-09T05:03:19.770Z,40.10
2023-04-09T05:05:52.776Z,40.88
2023-04-09T05:08:39.723Z,42.65
2023-04-09T05:11:13.181Z,41.40
2023-04-09T05:13:59.732Z,41.67
2023-04-09T05:16:39.741Z,44.35
2023-04-09T05:19:33.694Z,41.67
2023-04-09T05:22:20.762Z,42.35
2023-04-09T05:25:00.701Z,40.38
2023-04-09T05:27:54.743Z,42.55
2023-04-09T05:30:48.727Z,43.33
2023-04-09T05:33:44.711Z,42.90
2023-04-09T05:36:31.698Z,44.10
2023-04-09T05:39:04.865Z,49.65
2023-04-09T05:41:51.717Z,44.47
2023-04-09T05:44:25.812Z,43.95
2023-04-09T05:47:12.761Z,45.15
2023-04-09T05:49:52.724Z,47.65
2023-04-09T05:52:46.748Z,44.05
2023-04-09T05:55:33.722Z,45.05
2023-04-09T05:58:13.708Z,41.42
2023-04-09T06:01:00.719Z,43.78
2023-04-09T06:03:33.942Z,43.03
2023-04-09T06:06:20.737Z,43.25
2023-04-09T06:08:53.914Z,43.35
2023-04-09T06:11:40.720Z,48.03
2023-04-09T06:14:22.726Z,46.35
2023-04-09T06:17:16.752Z,48.55
2023-04-09T06:20:10.733Z,48.47
2023-04-09T06:23:04.774Z,42.75
2023-04-09T06:25:51.726Z,45.20
2023-04-09T06:28:31.726Z,41.03
2023-04-09T06:31:25.781Z,41.15
2023-04-09T06:34:12.755Z,34.95
2023-04-09T06:36:45.875Z,37.83
2023-04-09T06:39:32.745Z,34.42
2023-04-09T06:42:12.756Z,36.55
2023-04-09T06:44:59.748Z,34.85
2023-04-09T06:47:32.874Z,38.60
2023-04-09T06:50:26.783Z,35.28
2023-04-09T06:53:20.765Z,41.78
2023-04-09T06:56:07.761Z,43.00
2023-04-09T06:58:40.869Z,37.90
2023-04-09T07:01:27.801Z,34.28
2023-04-09T07:04:00.998Z,36.67
2023-04-09T07:06:47.740Z,41.53
2023-04-09T07:09:20.845Z,40.08
2023-04-09T07:12:07.936Z,38.47
2023-04-09T07:14:40.837Z,36.75
2023-04-09T07:17:27.762Z,38.53
2023-04-09T07:20:01.045Z,33.78
2023-04-09T07:22:47.739Z,36.17
2023-04-09T07:25:28.748Z,34.67
2023-04-09T07:28:22.744Z,34.78
2023-04-09T07:31:09.789Z,37.47
2023-04-09T07:33:42.835Z,35.95
2023-04-09T07:36:29.982Z,36.40
2023-04-09T07:39:03.834Z,36.65
2023-04-09T07:41:50.760Z,33.80
2023-04-09T07:44:24.635Z,35.17
2023-04-09T07:47:13.739Z,38.00
2023-04-09T07:49:47.119Z,37.70
2023-04-09T07:52:33.772Z,38.67
2023-04-09T07:55:06.905Z,38.22
2023-04-09T07:57:54.787Z,33.65
2023-04-09T08:00:34.759Z,36.45
2023-04-09T08:03:22.128Z,37.97
2023-04-09T08:05:56.442Z,34.15
2023-04-09T08:08:42.791Z,38.03
2023-04-09T08:11:15.883Z,32.58
2023-04-09T08:14:03.755Z,33.38
2023-04-09T08:16:43.850Z,32.60
2023-04-09T08:19:39.280Z,30.55
2023-04-09T08:22:27.777Z,33.22
2023-04-09T08:25:03.894Z,29.92
2023-04-09T08:27:50.758Z,32.58
2023-04-09T08:30:23.877Z,31.65
2023-04-09T08:33:10.806Z,32.10
2023-04-09T08:35:44.313Z,30.00
2023-04-09T08:38:30.782Z,29.63
2023-04-09T08:41:10.768Z,30.38
2023-04-09T08:43:59.815Z,29.90
2023-04-09T08:46:33.878Z,33.85
2023-04-09T08:49:20.787Z,30.30
2023-04-09T08:51:54.878Z,30.42
2023-04-09T08:54:41.860Z,29.90
2023-04-09T08:57:21.782Z,29.58
2023-04-09T09:00:15.771Z,29.30
2023-04-09T09:03:14.912Z,32.38
2023-04-09T09:05:59.784Z,32.40
2023-04-09T09:08:54.120Z,29.52
2023-04-09T09:11:42.795Z,31.17
2023-04-09T09:14:24.783Z,30.75
2023-04-09T09:17:12.838Z,30.65
2023-04-09T09:19:52.785Z,30.17
2023-04-09T09:22:55.964Z,32.60
2023-04-09T09:25:38.860Z,28.60
2023-04-09T09:28:26.817Z,30.05
2023-04-09T09:30:59.940Z,29.83
2023-04-09T09:33:46.814Z,31.45
2023-04-09T09:36:19.905Z,28.90
2023-04-09T09:39:15.800Z,32.53
2023-04-09T09:41:49.918Z,29.10
2023-04-09T09:44:38.860Z,30.65
2023-04-09T09:47:23.143Z,27.13
2023-04-09T09:50:16.848Z,26.25
2023-04-09T09:53:24.021Z,26.88
2023-04-09T09:56:16.808Z,27.98
2023-04-09T09:59:10.812Z,28.52
2023-04-09T10:02:17.881Z,28.23
2023-04-09T10:05:07.840Z,28.67
2023-04-09T10:07:47.846Z,25.80
2023-04-09T10:10:42.005Z,33.58
2023-04-09T10:13:42.929Z,33.28
2023-04-09T10:16:37.016Z,31.02
2023-04-09T10:19:30.881Z,28.60
2023-04-09T10:22:26.835Z,30.60
2023-04-09T10:25:14.853Z,29.58
2023-04-09T10:27:56.836Z,30.20
2023-04-09T10:30:50.908Z,30.25
2023-04-09T10:33:37.882Z,34.78
2023-04-09T10:36:16.102Z,33.03
2023-04-09T10:39:02.859Z,30.17
2023-04-09T10:41:37.945Z,32.08
2023-04-09T10:44:29.840Z,32.58
2023-04-09T10:47:02.950Z,29.92
2023-04-09T10:49:56.928Z,30.70
2023-04-09T10:52:54.859Z,30.73
2023-04-09T10:55:48.849Z,30.65
2023-04-09T10:58:28.850Z,29.05
2023-04-09T11:01:15.830Z,26.33
2023-04-09T11:03:59.836Z,29.30
2023-04-09T11:06:47.866Z,28.00
2023-04-09T11:09:27.854Z,28.40
2023-04-09T11:12:14.856Z,27.73
2023-04-09T11:14:54.868Z,24.95
2023-04-09T11:17:51.920Z,28.48
2023-04-09T11:20:40.863Z,28.15
2023-04-09T11:23:13.952Z,24.30
2023-04-09T11:26:01.876Z,24.98
2023-04-09T11:28:41.837Z,25.55
2023-04-09T11:31:40.922Z,28.10
2023-04-09T11:34:27.853Z,28.75
2023-04-09T11:37:05.378Z,25.92
2023-04-09T11:39:52.859Z,28.10
2023-04-09T11:42:26.000Z,30.10
2023-04-09T11:45:28.876Z,28.55
2023-04-09T11:48:24.965Z,27.58
2023-04-09T11:51:18.904Z,27.85
2023-04-09T11:54:09.881Z,25.95
2023-04-09T11:56:42.970Z,26.60
2023-04-09T11:59:29.875Z,25.63
2023-04-09T12:02:07.552Z,26.67
2023-04-09T12:04:58.004Z,24.33
2023-04-09T12:07:39.611Z,26.33
2023-04-09T12:10:33.909Z,26.27
2023-04-09T12:13:19.896Z,25.88
2023-04-09T12:16:15.125Z,25.05
2023-04-09T12:19:01.888Z,25.35
2023-04-09T12:22:07.883Z,23.77
2023-04-09T12:24:54.898Z,22.92
2023-04-09T12:27:34.888Z,23.30
2023-04-09T12:30:21.904Z,24.10
2023-04-09T12:33:02.042Z,23.50
2023-04-09T12:35:49.010Z,28.02
2023-04-09T12:38:22.146Z,24.38
2023-04-09T12:41:08.901Z,24.00
2023-04-09T12:43:50.060Z,25.27
2023-04-09T12:46:44.084Z,25.48
2023-04-09T12:49:30.897Z,25.33
2023-04-09T12:52:04.200Z,24.65
2023-04-09T12:54:51.912Z,23.98
2023-04-09T12:57:25.070Z,28.50
2023-04-09T13:00:13.929Z,26.70
2023-04-09T13:02:47.328Z,23.90
2023-04-09T13:05:33.904Z,26.35
2023-04-09T13:08:07.101Z,25.60
2023-04-09T13:10:53.934Z,25.98
2023-04-09T13:13:28.687Z,24.40
2023-04-09T13:16:15.911Z,24.63
2023-04-09T13:18:49.025Z,26.60
2023-04-09T13:21:35.928Z,26.08
2023-04-09T13:24:12.067Z,25.23
2023-04-09T13:26:58.911Z,27.95
2023-04-09T13:29:32.106Z,26.63
2023-04-09T13:32:18.934Z,26.42
2023-04-09T13:34:54.176Z,25.98
2023-04-09T13:37:40.924Z,25.52
2023-04-09T13:40:15.047Z,24.08
2023-04-09T13:43:02.051Z,24.60
2023-04-09T13:45:35.078Z,24.30
2023-04-09T13:48:21.930Z,29.25
2023-04-09T13:50:55.405Z,25.13
2023-04-09T13:53:41.919Z,24.83
2023-04-09T13:56:21.964Z,26.05
2023-04-09T13:59:15.920Z,27.27
2023-04-09T14:02:03.068Z,25.17
2023-04-09T14:04:37.321Z,27.73
2023-04-09T14:07:23.945Z,28.23
2023-04-09T14:10:04.012Z,27.63
2023-04-09T14:12:57.929Z,25.63
2023-04-09T14:15:52.992Z,24.73
2023-04-09T14:18:46.945Z,27.08
2023-04-09T14:21:33.983Z,35.45
2023-04-09T14:24:08.069Z,27.20
2023-04-09T14:26:54.958Z,41.83
2023-04-09T14:29:28.073Z,27.67
2023-04-09T14:32:14.964Z,31.10
2023-04-09T14:34:48.087Z,33.45
2023-04-09T14:37:34.948Z,25.02
2023-04-09T14:40:08.072Z,31.60
2023-04-09T14:42:47.989Z,37.63
2023-04-09T14:45:30.471Z,61.85
2023-04-09T14:48:09.975Z,38.47
2023-04-09T14:50:57.975Z,28.17
2023-04-09T14:53:44.961Z,29.17
2023-04-09T14:56:24.944Z,26.30
2023-04-09T14:59:19.056Z,26.77
2023-04-09T15:02:06.160Z,29.35
2023-04-09T15:04:39.246Z,30.40
2023-04-09T15:07:25.970Z,31.00
2023-04-09T15:10:03.146Z,31.05
2023-04-09T15:12:49.968Z,31.55
2023-04-09T15:15:30.052Z,32.13
2023-04-09T15:18:16.962Z,28.13
2023-04-09T15:20:50.775Z,32.67
2023-04-09T15:23:37.956Z,33.17
2023-04-09T15:26:11.285Z,29.10
2023-04-09T15:29:00.001Z,28.75
2023-04-09T15:31:33.148Z,34.30
2023-04-09T15:34:19.975Z,32.20
2023-04-09T15:36:53.062Z,34.38
2023-04-09T15:39:40.985Z,32.28
2023-04-09T15:42:20.216Z,30.48
2023-04-09T15:45:07.024Z,30.23
2023-04-09T15:47:40.289Z,34.53
2023-04-09T15:50:34.223Z,41.08
2023-04-09T15:53:25.983Z,36.67
2023-04-09T15:56:05.971Z,39.58
2023-04-09T15:58:53.207Z,37.22
2023-04-09T16:01:33.077Z,37.75
2023-04-09T16:04:20.067Z,37.92
2023-04-09T16:07:01.143Z,42.55
2023-04-09T16:09:54.979Z,35.35
2023-04-09T16:12:41.997Z,35.22
2023-04-09T16:15:22.997Z,33.17
2023-04-09T16:18:18.031Z,32.05
2023-04-09T16:21:12.119Z,38.97
2023-04-09T16:23:59.018Z,35.55
2023-04-09T16:26:38.989Z,42.45
2023-04-09T16:29:32.991Z,40.30
2023-04-09T16:32:20.045Z,35.97
2023-04-09T16:35:00.007Z,36.97
2023-04-09T16:37:47.016Z,41.53
2023-04-09T16:40:31.011Z,61.55
2023-04-09T16:43:18.004Z,80.35
2023-04-09T16:45:59.070Z,64.50
2023-04-09T16:48:47.995Z,48.95
2023-04-09T16:51:21.173Z,46.58
2023-04-09T16:54:08.004Z,47.30
2023-04-09T16:56:41.507Z,57.83
2023-04-09T16:59:28.006Z,42.08
2023-04-09T17:02:01.550Z,56.47
2023-04-09T17:04:48.182Z,47.63
2023-04-09T17:07:21.954Z,40.20
2023-04-09T17:10:09.038Z,33.92
2023-04-09T17:12:42.234Z,50.47
2023-04-09T17:15:30.010Z,47.03
2023-04-09T17:18:04.188Z,41.17
2023-04-09T17:20:51.051Z,46.03
2023-04-09T17:23:31.021Z,62.80
2023-04-09T17:26:25.020Z,44.33
2023-04-09T17:29:12.101Z,44.55
2023-04-09T17:31:52.011Z,42.72
2023-04-09T17:34:46.004Z,39.65
2023-04-09T17:37:35.025Z,42.53
2023-04-09T17:40:09.177Z,42.00
2023-04-09T17:42:56.067Z,45.95
2023-04-09T17:45:29.127Z,47.80
2023-04-09T17:48:16.031Z,44.72
2023-04-09T17:50:50.085Z,41.58
2023-04-09T17:53:37.041Z,40.53
2023-04-09T17:56:11.109Z,38.13
2023-04-09T17:58:58.051Z,44.80
2023-04-09T18:01:38.133Z,42.22
2023-04-09T18:04:32.213Z,39.75
2023-04-09T18:07:19.030Z,46.90
2023-04-09T18:09:59.043Z,44.80
2023-04-09T18:12:46.041Z,47.55
2023-04-09T18:15:26.132Z,39.35
2023-04-09T18:18:20.038Z,40.92
2023-04-09T18:21:07.068Z,39.78
2023-04-09T18:23:40.510Z,38.40
2023-04-09T18:26:27.026Z,42.42
2023-04-09T18:29:07.046Z,39.05
2023-04-09T18:32:02.054Z,38.47
2023-04-09T18:34:56.057Z,41.00
2023-04-09T18:37:43.037Z,39.47
2023-04-09T18:40:25.043Z,39.38
2023-04-09T18:43:19.100Z,39.72
2023-04-09T18:46:06.068Z,39.58
2023-04-09T18:48:39.292Z,41.83
2023-04-09T18:51:26.052Z,39.45
2023-04-09T18:54:00.709Z,37.17
2023-04-09T18:56:48.101Z,42.42
2023-04-09T18:59:24.166Z,36.20
2023-04-09T19:02:11.377Z,40.78
2023-04-09T19:04:45.281Z,45.75
2023-04-09T19:07:32.066Z,39.38
2023-04-09T19:10:05.178Z,46.38
2023-04-09T19:12:57.042Z,39.83
2023-04-09T19:15:39.124Z,41.38
2023-04-09T19:18:33.087Z,44.05
2023-04-09T19:21:20.339Z,45.75
2023-04-09T19:24:00.069Z,44.33
2023-04-09T19:26:54.082Z,44.35
2023-04-09T19:29:41.098Z,42.25
2023-04-09T19:32:14.759Z,45.30
2023-04-09T19:35:01.070Z,44.97
2023-04-09T19:37:34.786Z,43.95
2023-04-09T19:40:23.071Z,46.78
2023-04-09T19:43:03.082Z,42.67
2023-04-09T19:45:50.111Z,43.88
2023-04-09T19:48:30.284Z,42.22
2023-04-09T19:51:30.072Z,45.67
2023-04-09T19:54:24.077Z,44.05
2023-04-09T19:57:11.062Z,36.55
2023-04-09T19:59:44.205Z,36.90
2023-04-09T20:02:32.216Z,34.88
2023-04-09T20:05:05.172Z,43.67
2023-04-09T20:07:52.109Z,44.80
2023-04-09T20:10:33.076Z,55.45
2023-04-09T20:13:20.087Z,48.75
2023-04-09T20:15:53.239Z,55.55
2023-04-09T20:18:40.093Z,56.60
2023-04-09T20:21:22.082Z,59.85
2023-04-09T20:24:09.093Z,63.15
2023-04-09T20:26:49.097Z,67.85
2023-04-09T20:29:43.085Z,63.08
2023-04-09T20:32:30.161Z,63.58
2023-04-09T20:35:10.094Z,62.28
2023-04-09T20:37:58.122Z,53.53
2023-04-09T20:40:31.261Z,57.05
2023-04-09T20:43:18.100Z,52.70
2023-04-09T20:45:58.142Z,49.08
2023-04-09T20:48:52.289Z,49.90
2023-04-09T20:51:46.095Z,58.30
2023-04-09T20:54:33.098Z,53.33
2023-04-09T20:57:14.082Z,57.30
2023-04-09T21:00:08.116Z,61.15
2023-04-09T21:02:55.331Z,65.13
2023-04-09T21:05:36.107Z,55.90
2023-04-09T21:08:23.101Z,55.92
2023-04-09T21:11:03.107Z,61.70
2023-04-09T21:13:54.653Z,57.78
2023-04-09T21:16:36.151Z,46.88
2023-04-09T21:19:23.114Z,40.65
2023-04-09T21:22:03.115Z,39.00
2023-04-09T21:24:57.135Z,46.85
2023-04-09T21:27:51.154Z,48.20
2023-04-09T21:30:45.147Z,48.95
2023-04-09T21:33:32.127Z,55.22
2023-04-09T21:36:06.999Z,69.50
2023-04-09T21:38:54.275Z,66.22
2023-04-09T21:41:27.233Z,66.32
2023-04-09T21:44:16.111Z,67.50
2023-04-09T21:46:49.238Z,76.32
2023-04-09T21:49:36.131Z,78.80
2023-04-09T21:52:14.492Z,70.28
2023-04-09T21:55:01.119Z,64.97
2023-04-09T21:57:34.296Z,63.10
2023-04-09T22:00:23.142Z,67.50
2023-04-09T22:03:01.592Z,65.32
2023-04-09T22:05:48.139Z,60.95
2023-04-09T22:08:21.267Z,64.90
2023-04-09T22:11:08.125Z,59.80
2023-04-09T22:13:41.241Z,61.78
2023-04-09T22:16:28.262Z,60.42
2023-04-09T22:19:09.139Z,61.85
2023-04-09T22:22:03.158Z,53.53
2023-04-09T22:24:50.156Z,57.78
2023-04-09T22:27:23.237Z,58.67
2023-04-09T22:30:10.161Z,58.28
2023-04-09T22:32:43.267Z,62.38
2023-04-09T22:35:30.172Z,60.60
2023-04-09T22:38:03.375Z,56.95
2023-04-09T22:40:50.155Z,60.47
2023-04-09T22:43:31.144Z,55.92
2023-04-09T22:46:25.231Z,62.50
2023-04-09T22:49:19.171Z,60.58
2023-04-09T22:52:13.139Z,61.50
2023-04-09T22:55:00.161Z,60.30
2023-04-09T22:57:40.157Z,64.18
2023-04-09T23:00:34.151Z,63.10
2023-04-09T23:03:28.248Z,65.65
2023-04-09T23:06:15.145Z,64.85
2023-04-09T23:08:48.261Z,66.60
2023-04-09T23:11:35.151Z,72.47
2023-04-09T23:14:08.250Z,68.32
2023-04-09T23:16:55.170Z,69.63
2023-04-09T23:19:28.249Z,64.30
2023-04-09T23:22:15.170Z,59.05
2023-04-09T23:24:48.255Z,67.90
2023-04-09T23:27:35.171Z,63.70
2023-04-09T23:30:08.854Z,64.78
2023-04-09T23:32:57.435Z,57.75
2023-04-09T23:35:31.456Z,57.60
2023-04-09T23:38:18.164Z,58.85
2023-04-09T23:40:51.313Z,60.20
2023-04-09T23:43:38.176Z,58.80
2023-04-09T23:46:18.157Z,54.78
2023-04-09T23:49:05.168Z,56.63
2023-04-09T23:51:45.198Z,57.97
2023-04-09T23:54:39.175Z,102.32
2023-04-09T23:57:26.166Z,93.93
